Click on the image to enlargeKlik op de webcam foto voor een grotere versie
Or click here
for the webcam videoo


Visit our other website:Website of another weatherstation



info button From: 23-09-2018 06:59    Until: 22:59 warning for: Rain Level: Yellow   Rain
Een lagedrukzone en daaraan verbonden actieve storingen trekken vandaag over ons land. We verwachten nog flink wat neerslag, zodat we van gisteren tot vanavond in vele streken totale neerslaghoeveelheden van 20 tot 40 mm kunnen bereiken. Une zone de basse et la perturbation active associee a celle-ci traversera notre pays aujourd?hui.Nous prevoyons encore des precipitations assez intenses en de nombreuses regions. Les quantites pourront atteindre 20 a 40 mm entre hier et ce soir. 

Nearby Airports - METAR Reports

   
EBBR - Vaartkom-Leuven
Updated: 23-09-2018 07:50
Light Drizzle, Mist, Mostly Cloudy    Wind: NE 7 km/h
Light Drizzle, Mist, Mostly Cloudy
Wind: Wind: NE 7 km/h
Temperature: 11°C
Dew Point: 11°C
Humidity: 100%
Barometer: 1011 hPa
Clouds: Mostly Cloudy
Visibility: 3 km
Cloud details: Mostly Cloudy 91.4 m
EBBR 230550Z 05004KT 2800 -DZ BR BKN003 11/11 Q1011 NOSIG
EBAW - Antwerp
Updated: 23-09-2018 07:50
Mist, Mostly Cloudy    Wind: NE 11 km/h
Mist, Mostly Cloudy
Wind: Wind: NE 11 km/h
Temperature: 11°C
Dew Point: 11°C
Humidity: 100%
Barometer: 1012 hPa
Clouds: Mostly Cloudy
Visibility: 4 km
Cloud details: Mostly Cloudy 121.9 m
EBAW 230550Z 05006KT 3500 BR BKN004 11/11 Q1012 NOSIG
EBLG - Li├Ęge
Updated: 23-09-2018 07:50
Light Drizzle, Rain, Mostly Cloudy    Wind: NNE 6 km/h
Light Drizzle, Rain, Mostly Cloudy
Wind: Wind: NNE 6 km/h
Temperature: 11°C
Dew Point: 11°C
Humidity: 100%
Barometer: 1011 hPa
Clouds: Mostly Cloudy
Visibility: 3 km
Cloud details: Mostly Cloudy 91.4 m,
Mostly Cloudy 152.4 m
EBLG 230550Z 02003KT 2600 -DZRA BKN003 BKN005 11/11 Q1011 TEMPO 0400 DZRA BKN003 OVC005
EBCV - Mons/Bergen
Updated: 20-09-2018 16:25
NOT Current
Few Clouds    Wind: South 26 km/h
Few Clouds
Wind: Wind: South 26 km/h
Temperature: 24°C
Dew Point: 13°C
Humidity: 50%
Barometer: 1014 hPa
Clouds: Few Clouds
Visibility: More than 10 km
Cloud details: Few Clouds 6400.8 m
EBCV 201425Z AUTO 19014KT 9999 FEW210/// 24/13 Q1014 BLU
EHBK - Maastricht
Updated: 23-09-2018 07:55
Light Rain, Drizzle, Overcast    Wind: ENE 9 km/h
Light Rain, Drizzle, Overcast
Wind: Wind: ENE 9 km/h
Temperature: 11°C
Dew Point: 11°C
Humidity: 100%
Barometer: 1011 hPa
Clouds: Overcast
Visibility: 5 km
Cloud details: Few Clouds 30.5 m,
Mostly Cloudy 91.4 m,
Overcast 121.9 m
EHBK 230555Z AUTO 07005KT 5000 -RADZ FEW001 BKN003 OVC004 11/11 Q1011 TEMPO 4000 BR
ELLX - Luxemburg
Updated: 23-09-2018 07:50
Light Drizzle, Mostly Cloudy    Wind: SW 24 km/h
Light Drizzle, Mostly Cloudy
Wind: Wind: SW 24 km/h
Temperature: 16°C
Dew Point: 16°C
Humidity: 100%
Barometer: 1012 hPa
Clouds: Mostly Cloudy
Visibility: 3 km
Cloud details: Partly Cloudy 61 m,
Mostly Cloudy 91.4 m
ELLX 230550Z 23013KT 3000 -DZ SCT002 BKN003 16/16 Q1012 NOSIG
EBOS - Oostende
Updated: 23-09-2018 07:50
Mist, Mostly Cloudy    Wind: East 7 km/h
Mist, Mostly Cloudy
Wind: Wind: East 7 km/h
Temperature: 11°C
Dew Point: 9°C
Humidity: 88%
Barometer: 1012 hPa
Clouds: Mostly Cloudy
Visibility: 4 km
Cloud details: Few Clouds 121.9 m,
Partly Cloudy 609.6 m,
Mostly Cloudy 1219.2 m
EBOS 230550Z 08004KT 4000 BR FEW004 SCT020 BKN040 11/09 Q1012 TEMPO 6000 NSW
  

Script developed by  Saratoga-weather.org Adapted for the template by  Weerstation Leuven

You find our weather info also at:

UK Metoffice

WeatherCloud

European Weather Network

Weather Underground

Benelux Weather Network

AWEKAS

WeatherlinkIP

Citizen Weather Observer Program (CWOP)

HAMweather, WeatherForYou, PWS Weather

Equipment we use:

Weather-station
Davis VUE

Weather-program
Meteobridge

Provider
Robohost

Davis VUE

Meteobridge

Robohost